Time;durP1;ratioP1;P1;durP2;ratioP2;P2;SDS_P1;SDS_P2;PMS_P1;PMS_P2;Temp;Humidity;BMP_temperature;BMP_pressure;BME280_temperature;BME280_humidity;BME280_pressure;Samples;Min_cycle;Max_cycle;Signal;HPM_P1;HPM_P2
2024/01/12 00:01:12;;;;;;;;;32.50;24.50;;;;;-146.67;100.00;57155.34;5061549;28;62098;-78
2024/01/12 00:03:37;;;;;;;;;34.75;25.00;;;;;-146.67;100.00;57155.34;5059813;28;61822;-78
2024/01/12 00:06:04;;;;;;;;;35.25;25.25;;;;;-146.67;100.00;57155.34;5060831;28;61947;-79
2024/01/12 00:08:31;;;;;;;;;33.25;27.50;;;;;-146.67;100.00;57155.34;5060469;28;61889;-78
2024/01/12 00:10:56;;;;;;;;;28.00;21.67;;;;;-146.67;100.00;57155.34;5061770;28;61737;-78
2024/01/12 00:13:22;;;;;;;;;27.67;22.33;;;;;-146.67;100.00;57155.34;5061626;28;61761;-78
2024/01/12 00:15:47;;;;;;;;;30.33;23.67;;;;;-146.67;100.00;57155.34;5061854;28;61893;-78
2024/01/12 00:18:13;;;;;;;;;33.33;24.00;;;;;-146.67;100.00;57155.34;5059559;28;63795;-78
2024/01/12 00:20:42;;;;;;;;;27.75;19.75;;;;;-146.67;100.00;57155.34;5061111;28;61929;-78
2024/01/12 00:23:09;;;;;;;;;24.75;17.00;;;;;-146.67;100.00;57155.34;5061496;28;61781;-78
2024/01/12 00:25:34;;;;;;;;;23.75;17.50;;;;;-146.67;100.00;57155.34;5061637;28;62165;-78
2024/01/12 00:27:59;;;;;;;;;37.33;19.33;;;;;-146.67;100.00;57155.34;5060944;28;62306;-78
2024/01/12 00:30:25;;;;;;;;;28.50;22.50;;;;;-146.67;100.00;57155.34;5062269;28;61947;-78
2024/01/12 00:32:50;;;;;;;;;27.50;19.00;;;;;-146.67;100.00;57155.34;5061786;28;61845;-78
2024/01/12 00:35:15;;;;;;;;;30.25;20.75;;;;;-146.67;100.00;57155.34;5042980;28;61964;-78
2024/01/12 00:37:41;;;;;;;;;19.00;18.25;;;;;-146.67;100.00;57155.34;5043747;28;63430;-78
2024/01/12 00:40:07;;;;;;;;;27.50;23.75;;;;;-146.67;100.00;57155.34;5061989;28;61919;-78
2024/01/12 00:42:32;;;;;;;;;24.50;20.50;;;;;-146.67;100.00;57155.34;5062084;28;61773;-78
2024/01/12 00:44:57;;;;;;;;;28.50;19.50;;;;;-146.67;100.00;57155.34;5043180;28;62055;-78
2024/01/12 00:47:23;;;;;;;;;25.75;14.75;;;;;-146.67;100.00;57155.34;5061138;28;62496;-79
2024/01/12 00:49:48;;;;;;;;;29.25;22.00;;;;;-146.67;100.00;57155.34;5061619;28;61822;-78
2024/01/12 00:52:13;;;;;;;;;24.50;21.50;;;;;-146.67;100.00;57155.34;5061794;28;61824;-78
2024/01/12 00:54:39;;;;;;;;;29.25;20.75;;;;;-146.67;100.00;57155.34;5061899;28;61799;-78
2024/01/12 00:57:04;;;;;;;;;29.75;16.00;;;;;-146.67;100.00;57155.34;5043402;28;63700;-78
2024/01/12 00:59:29;;;;;;;;;25.00;16.33;;;;;-146.67;100.00;57155.34;5061495;28;62242;-78
2024/01/12 01:01:57;;;;;;;;;25.00;20.00;;;;;-146.67;100.00;57155.34;5062161;28;61816;-78
2024/01/12 01:04:25;;;;;;;;;24.25;20.00;;;;;-146.67;100.00;57155.34;5059039;28;61886;-78
2024/01/12 01:06:51;;;;;;;;;27.75;19.50;;;;;-146.67;100.00;57155.34;5059600;28;64646;-78
2024/01/12 01:09:16;;;;;;;;;28.50;22.25;;;;;-146.67;100.00;57155.34;5060553;28;62424;-78
2024/01/12 01:11:42;;;;;;;;;24.00;20.00;;;;;-146.67;100.00;57155.34;5052777;28;61873;-78
2024/01/12 01:14:07;;;;;;;;;23.25;17.50;;;;;-146.67;100.00;57155.34;5061948;28;62000;-78
2024/01/12 01:16:32;;;;;;;;;26.25;19.50;;;;;-146.67;100.00;57155.34;5060978;28;61725;-78
2024/01/12 01:18:58;;;;;;;;;17.50;13.25;;;;;-146.67;100.00;57155.34;5061832;28;62024;-79
2024/01/12 01:21:24;;;;;;;;;17.00;16.00;;;;;-146.67;100.00;57155.34;5064875;28;61949;-79
2024/01/12 01:23:49;;;;;;;;;13.75;11.25;;;;;-146.67;100.00;57155.34;5065540;28;61996;-78
2024/01/12 01:26:14;;;;;;;;;14.00;11.00;;;;;-146.67;100.00;57155.34;5046283;28;63621;-79
2024/01/12 01:28:40;;;;;;;;;12.00;8.00;;;;;-146.67;100.00;57155.34;5065132;28;61876;-79
2024/01/12 01:31:05;;;;;;;;;14.75;14.25;;;;;-146.67;100.00;57155.34;5047272;28;61964;-79
2024/01/12 01:33:30;;;;;;;;;17.25;13.25;;;;;-146.67;100.00;57155.34;5045711;28;62442;-78
2024/01/12 01:35:56;;;;;;;;;16.75;11.00;;;;;-146.67;100.00;57155.34;5045947;28;64748;-78
2024/01/12 01:38:21;;;;;;;;;10.25;9.00;;;;;-146.67;100.00;57155.34;5047323;28;61898;-78
2024/01/12 01:40:46;;;;;;;;;14.50;10.25;;;;;-146.67;100.00;57155.34;5065101;28;62249;-78
2024/01/12 01:43:12;;;;;;;;;4.50;4.50;;;;;-146.67;100.00;57155.34;5065350;28;61922;-79
2024/01/12 01:45:37;;;;;;;;;12.00;9.00;;;;;-146.67;100.00;57155.34;5045838;28;63762;-78
2024/01/12 01:48:07;;;;;;;;;8.00;5.00;;;;;-146.67;100.00;57155.34;5064173;28;61849;-78
2024/01/12 01:50:33;;;;;;;;;11.50;8.25;;;;;-146.67;100.00;57155.34;5046481;28;61957;-78
2024/01/12 01:52:59;;;;;;;;;11.00;11.00;;;;;-146.67;100.00;57155.34;5065150;28;61795;-78
2024/01/12 01:55:26;;;;;;;;;10.75;9.75;;;;;-146.67;100.00;57155.34;5063988;28;61833;-78
2024/01/12 01:57:52;;;;;;;;;7.25;5.00;;;;;-146.67;100.00;57155.34;5064493;28;61751;-78
2024/01/12 02:00:18;;;;;;;;;13.75;8.50;;;;;-146.67;100.00;57155.34;5064845;28;62017;-78
2024/01/12 02:02:43;;;;;;;;;11.25;9.50;;;;;-146.67;100.00;57155.34;5064126;28;61701;-78
2024/01/12 02:05:10;;;;;;;;;12.25;10.00;;;;;-146.67;100.00;57155.34;5063484;28;61789;-78
2024/01/12 02:07:39;;;;;;;;;11.75;7.75;;;;;-146.67;100.00;57155.34;5046333;28;61908;-79
2024/01/12 02:10:06;;;;;;;;;11.00;7.75;;;;;-146.67;100.00;57155.34;5064599;28;61753;-78
2024/01/12 02:12:37;;;;;;;;;11.25;8.00;;;;;-146.67;100.00;57155.34;5063485;28;61711;-79
2024/01/12 02:15:07;;;;;;;;;14.00;11.00;;;;;-146.67;100.00;57155.34;5064404;28;61892;-78
2024/01/12 02:17:35;;;;;;;;;15.00;11.25;;;;;-146.67;100.00;57155.34;5063953;28;61894;-78
2024/01/12 02:20:01;;;;;;;;;11.25;7.75;;;;;-146.67;100.00;57155.34;5064241;28;61935;-78
2024/01/12 02:22:27;;;;;;;;;8.50;8.50;;;;;-146.67;100.00;57155.34;5064607;28;61916;-78
2024/01/12 02:24:53;;;;;;;;;11.50;10.50;;;;;-146.67;100.00;57155.34;5063375;28;61833;-78
2024/01/12 02:27:19;;;;;;;;;16.00;10.50;;;;;-146.67;100.00;57155.34;5063056;28;61968;-78
2024/01/12 02:29:45;;;;;;;;;14.75;11.50;;;;;-146.67;100.00;57155.34;5063826;28;61814;-77
2024/01/12 02:32:11;;;;;;;;;11.25;7.50;;;;;-146.67;100.00;57155.34;5064743;28;61662;-78
2024/01/12 02:34:36;;;;;;;;;11.25;9.25;;;;;-146.67;100.00;57155.34;5062939;28;61807;-78
2024/01/12 02:37:01;;;;;;;;;12.75;9.50;;;;;-146.67;100.00;57155.34;5063800;28;61836;-78
2024/01/12 02:39:26;;;;;;;;;19.00;14.00;;;;;-146.67;100.00;57155.34;5046125;28;62002;-79
2024/01/12 02:41:54;;;;;;;;;13.00;10.00;;;;;-146.67;100.00;57155.34;5064162;28;62083;-78
2024/01/12 02:44:19;;;;;;;;;15.50;12.75;;;;;-146.67;100.00;57155.34;5044979;28;65058;-78
2024/01/12 02:46:45;;;;;;;;;19.25;15.75;;;;;-146.67;100.00;57155.34;5063449;28;61877;-78
2024/01/12 02:49:10;;;;;;;;;16.50;13.75;;;;;-146.67;100.00;57155.34;5045357;28;61949;-78
2024/01/12 02:51:35;;;;;;;;;18.75;16.00;;;;;-146.67;100.00;57155.34;5064338;28;62072;-78
2024/01/12 02:54:01;;;;;;;;;17.00;11.75;;;;;-146.67;100.00;57155.34;5044673;28;63778;-79
2024/01/12 02:56:26;;;;;;;;;17.25;15.25;;;;;-146.67;100.00;57155.34;5062157;28;61869;-78
2024/01/12 02:58:52;;;;;;;;;19.25;14.25;;;;;-146.67;100.00;57155.34;5045780;28;61794;-78
2024/01/12 03:01:19;;;;;;;;;20.75;14.00;;;;;-146.67;100.00;57155.34;5045749;28;61850;-78
2024/01/12 03:03:44;;;;;;;;;22.75;18.50;;;;;-146.67;100.00;57155.34;5062480;28;61960;-79
2024/01/12 03:06:09;;;;;;;;;24.25;15.00;;;;;-146.67;100.00;57155.34;5063194;28;61984;-79
2024/01/12 03:08:35;;;;;;;;;19.00;14.25;;;;;-146.67;100.00;57155.34;5043204;28;61890;-79
2024/01/12 03:11:00;;;;;;;;;26.50;18.25;;;;;-146.67;100.00;57155.34;5043553;28;61775;-79
2024/01/12 03:13:26;;;;;;;;;19.75;12.00;;;;;-146.67;100.00;57155.34;5042088;28;61661;-78
2024/01/12 03:15:51;;;;;;;;;23.00;18.75;;;;;-146.67;100.00;57155.34;5042974;28;61771;-79
2024/01/12 03:18:16;;;;;;;;;20.75;15.75;;;;;-146.67;100.00;57155.34;5043096;28;61708;-79
2024/01/12 03:20:42;;;;;;;;;23.50;16.75;;;;;-146.67;100.00;57155.34;5040756;28;61785;-78
2024/01/12 03:23:07;;;;;;;;;21.50;16.50;;;;;-146.67;100.00;57155.34;5040927;28;63407;-79
2024/01/12 03:25:32;;;;;;;;;23.50;15.50;;;;;-146.67;100.00;57155.34;5043323;28;61860;-79
2024/01/12 03:27:59;;;;;;;;;27.75;18.00;;;;;-146.67;100.00;57155.34;5043113;28;61907;-78
2024/01/12 03:30:24;;;;;;;;;25.75;19.50;;;;;-146.67;100.00;57155.34;5043427;28;61879;-78
2024/01/12 03:32:50;;;;;;;;;26.50;17.00;;;;;-146.67;100.00;57155.34;5042333;28;61797;-79
2024/01/12 03:35:15;;;;;;;;;23.00;16.00;;;;;-146.67;100.00;57155.34;5042026;28;61990;-79
2024/01/12 03:37:40;;;;;;;;;24.00;15.00;;;;;-146.67;100.00;57155.34;5043275;28;62112;-78
2024/01/12 03:40:06;;;;;;;;;19.25;17.25;;;;;-146.67;100.00;57155.34;5043140;28;61984;-79
2024/01/12 03:42:32;;;;;;;;;21.50;16.75;;;;;-146.67;100.00;57155.34;5041546;28;61826;-79
2024/01/12 03:44:57;;;;;;;;;32.75;19.00;;;;;-146.67;100.00;57155.34;5046914;28;61832;-79
2024/01/12 03:47:22;;;;;;;;;26.00;17.00;;;;;-146.67;100.00;57155.34;5044928;28;62738;-79
2024/01/12 03:49:48;;;;;;;;;26.50;18.00;;;;;-146.67;100.00;57155.34;5062763;28;61938;-79
2024/01/12 03:52:13;;;;;;;;;25.75;21.75;;;;;-146.67;100.00;57155.34;5062267;28;62208;-79
2024/01/12 03:54:38;;;;;;;;;22.25;18.00;;;;;-146.67;100.00;57155.34;5063071;28;61841;-79
2024/01/12 03:57:04;;;;;;;;;19.25;16.25;;;;;-146.67;100.00;57155.34;5062660;28;61880;-79
2024/01/12 03:59:29;;;;;;;;;27.75;17.75;;;;;-146.67;100.00;57155.34;5063205;28;61873;-79
2024/01/12 04:01:55;;;;;;;;;25.25;22.50;;;;;-146.67;100.00;57155.34;5062222;28;61927;-79
2024/01/12 04:04:20;;;;;;;;;28.50;21.75;;;;;-146.67;100.00;57155.34;5061905;28;61895;-79
2024/01/12 04:06:45;;;;;;;;;30.25;20.75;;;;;-146.67;100.00;57155.34;5062128;28;62685;-78
2024/01/12 04:09:12;;;;;;;;;22.50;18.00;;;;;-146.67;100.00;57155.34;5061442;28;62079;-78
2024/01/12 04:11:40;;;;;;;;;39.75;25.00;;;;;-146.67;100.00;57155.34;5061311;28;62656;-79
2024/01/12 04:14:16;;;;;;;;;23.00;14.25;;;;;-146.67;100.00;57155.34;5062756;28;62821;-79
2024/01/12 04:16:42;;;;;;;;;29.25;22.25;;;;;-146.67;100.00;57155.34;5062047;28;61953;-79
2024/01/12 04:19:07;;;;;;;;;29.25;23.25;;;;;-146.67;100.00;57155.34;5062309;28;62063;-79
2024/01/12 04:21:32;;;;;;;;;24.50;19.25;;;;;-146.67;100.00;57155.34;5061981;28;62508;-79
2024/01/12 04:23:59;;;;;;;;;25.25;18.25;;;;;-146.67;100.00;57155.34;5044181;28;61927;-79
2024/01/12 04:26:25;;;;;;;;;34.25;24.75;;;;;-146.67;100.00;57155.34;5043722;28;61904;-79
2024/01/12 04:28:50;;;;;;;;;19.75;16.50;;;;;-146.67;100.00;57155.34;5062884;28;61786;-79
2024/01/12 04:31:16;;;;;;;;;26.50;20.50;;;;;-146.67;100.00;57155.34;5043494;28;65023;-78
2024/01/12 04:33:41;;;;;;;;;36.75;23.25;;;;;-146.67;100.00;57155.34;5061489;28;61864;-79
2024/01/12 04:36:07;;;;;;;;;18.75;18.75;;;;;-146.67;100.00;57155.34;5062444;28;61838;-79
2024/01/12 04:38:32;;;;;;;;;24.75;21.75;;;;;-146.67;100.00;57155.34;5062326;28;61844;-79
2024/01/12 04:40:58;;;;;;;;;23.50;21.00;;;;;-146.67;100.00;57155.34;5043115;28;63768;-79
2024/01/12 04:43:23;;;;;;;;;28.25;22.00;;;;;-146.67;100.00;57155.34;5060798;28;62126;-79
2024/01/12 04:45:48;;;;;;;;;29.25;21.75;;;;;-146.67;100.00;57155.34;5061772;28;62007;-79
2024/01/12 04:48:14;;;;;;;;;27.00;18.75;;;;;-146.67;100.00;57155.34;5043897;28;61764;-79
2024/01/12 04:50:39;;;;;;;;;21.00;19.00;;;;;-146.67;100.00;57155.34;5061318;28;61805;-78
2024/01/12 04:53:05;;;;;;;;;25.25;22.50;;;;;-146.67;100.00;57155.34;5061955;28;61940;-79
2024/01/12 04:55:30;;;;;;;;;35.00;20.00;;;;;-146.67;100.00;57155.34;5061614;28;61794;-79
2024/01/12 04:57:55;;;;;;;;;47.25;25.75;;;;;-146.67;100.00;57155.34;5060858;28;61904;-78
2024/01/12 05:00:21;;;;;;;;;27.75;19.00;;;;;-146.67;100.00;57155.34;5059817;28;63621;-79
2024/01/12 05:02:46;;;;;;;;;27.25;18.50;;;;;-146.67;100.00;57155.34;5061341;28;62301;-79
2024/01/12 05:05:12;;;;;;;;;25.25;19.25;;;;;-146.67;100.00;57155.34;5060680;28;61846;-78
2024/01/12 05:07:37;;;;;;;;;32.50;20.25;;;;;-146.67;100.00;57155.34;5039833;28;61881;-79
2024/01/12 05:10:04;;;;;;;;;21.75;15.75;;;;;-146.67;100.00;57155.34;5040626;28;62023;-79
2024/01/12 05:12:30;;;;;;;;;32.25;19.75;;;;;-146.67;100.00;57155.34;5040705;28;61796;-79
2024/01/12 05:14:55;;;;;;;;;27.00;18.50;;;;;-146.67;100.00;57155.34;5021951;28;61749;-79
2024/01/12 05:17:22;;;;;;;;;34.25;23.00;;;;;-146.67;100.00;57155.34;5021790;28;61842;-79
2024/01/12 05:19:48;;;;;;;;;29.50;19.25;;;;;-146.67;100.00;57155.34;5050083;28;62940;-79
2024/01/12 05:22:13;;;;;;;;;27.25;20.00;;;;;-146.67;100.00;57155.34;5061833;28;61776;-79
2024/01/12 05:24:39;;;;;;;;;25.00;21.75;;;;;-146.67;100.00;57155.34;5061009;28;61858;-79
2024/01/12 05:27:04;;;;;;;;;24.75;20.50;;;;;-146.67;100.00;57155.34;5043959;28;61926;-79
2024/01/12 05:29:30;;;;;;;;;18.75;14.75;;;;;-146.67;100.00;57155.34;5061258;28;61911;-79
2024/01/12 05:31:55;;;;;;;;;19.50;15.00;;;;;-146.67;100.00;57155.34;5061195;28;61758;-79
2024/01/12 05:34:20;;;;;;;;;21.25;9.00;;;;;-146.67;100.00;57155.34;5061066;28;61979;-79
2024/01/12 05:36:46;;;;;;;;;27.25;19.25;;;;;-146.67;100.00;57155.34;5061442;28;61869;-79
2024/01/12 05:39:11;;;;;;;;;19.50;16.25;;;;;-146.67;100.00;57155.34;5060604;28;61786;-79
2024/01/12 05:41:36;;;;;;;;;29.75;19.50;;;;;-146.67;100.00;57155.34;5043511;28;61963;-79
2024/01/12 05:44:02;;;;;;;;;24.00;14.25;;;;;-146.67;100.00;57155.34;5043006;28;61922;-78
2024/01/12 05:46:27;;;;;;;;;20.50;15.75;;;;;-146.67;100.00;57155.34;5061712;28;61875;-79
2024/01/12 05:48:53;;;;;;;;;20.25;16.25;;;;;-146.67;100.00;57155.34;5059750;28;62083;-79
2024/01/12 05:51:19;;;;;;;;;25.25;16.75;;;;;-146.67;100.00;57155.34;5054377;28;61843;-79
2024/01/12 05:53:45;;;;;;;;;22.25;16.75;;;;;-146.67;100.00;57155.34;5061192;28;61869;-79
2024/01/12 05:56:10;;;;;;;;;33.00;16.75;;;;;-146.67;100.00;57155.34;5061304;28;62042;-79
2024/01/12 05:58:35;;;;;;;;;24.00;16.75;;;;;-146.67;100.00;57155.34;5060611;28;62557;-79
2024/01/12 06:01:01;;;;;;;;;23.50;16.50;;;;;-146.67;100.00;57155.34;5059619;28;61730;-79
2024/01/12 06:03:29;;;;;;;;;26.00;20.25;;;;;-146.67;100.00;57155.34;5060773;28;61798;-79
2024/01/12 06:05:55;;;;;;;;;26.00;17.50;;;;;-146.67;100.00;57155.34;5044773;28;61811;-78
2024/01/12 06:08:20;;;;;;;;;16.25;11.00;;;;;-146.67;100.00;57155.34;5063602;28;61877;-76
2024/01/12 06:10:46;;;;;;;;;22.25;12.25;;;;;-146.67;100.00;57155.34;5064426;28;61900;-78
2024/01/12 06:13:12;;;;;;;;;25.50;19.75;;;;;-146.67;100.00;57155.34;5046090;28;61969;-77
2024/01/12 06:15:37;;;;;;;;;30.25;22.50;;;;;-146.67;100.00;57155.34;5046309;28;61839;-77
2024/01/12 06:18:03;;;;;;;;;31.00;23.00;;;;;-146.67;100.00;57155.34;5063264;28;62013;-77
2024/01/12 06:20:28;;;;;;;;;35.00;29.50;;;;;-146.67;100.00;57155.34;5062854;28;61875;-77
2024/01/12 06:22:54;;;;;;;;;20.25;17.00;;;;;-146.67;100.00;57155.34;5064822;28;61704;-78
2024/01/12 06:25:19;;;;;;;;;28.25;15.75;;;;;-146.67;100.00;57155.34;5064253;28;62026;-77
2024/01/12 06:27:46;;;;;;;;;31.00;19.50;;;;;-146.67;100.00;57155.34;5062467;28;62934;-76
2024/01/12 06:30:11;;;;;;;;;33.25;22.75;;;;;-146.67;100.00;57155.34;5062226;28;62126;-77
2024/01/12 06:32:38;;;;;;;;;30.75;22.50;;;;;-146.67;100.00;57155.34;5063851;28;61965;-77
2024/01/12 06:35:04;;;;;;;;;29.75;21.75;;;;;-146.67;100.00;57155.34;5064052;28;61884;-77
2024/01/12 06:37:29;;;;;;;;;23.50;15.50;;;;;-146.67;100.00;57155.34;5062860;28;61746;-77
2024/01/12 06:39:57;;;;;;;;;25.50;23.25;;;;;-146.67;100.00;57155.34;5063871;28;61874;-77
2024/01/12 06:42:23;;;;;;;;;29.75;25.25;;;;;-146.67;100.00;57155.34;5064122;28;61801;-81
2024/01/12 06:44:48;;;;;;;;;44.25;29.50;;;;;-146.67;100.00;57155.34;5062407;28;61804;-82
2024/01/12 06:47:14;;;;;;;;;35.00;26.75;;;;;-146.67;100.00;57155.34;5061598;28;63020;-81
2024/01/12 06:49:43;;;;;;;;;39.50;32.50;;;;;-146.67;100.00;57155.34;5062210;28;61880;-81
2024/01/12 06:52:09;;;;;;;;;33.50;26.25;;;;;-146.67;100.00;57155.34;5052785;28;61808;-82
2024/01/12 06:54:34;;;;;;;;;47.00;33.75;;;;;-146.67;100.00;57155.34;5063153;28;61913;-82
2024/01/12 06:56:59;;;;;;;;;39.50;30.00;;;;;-146.67;100.00;57155.34;5062466;28;61974;-82
2024/01/12 06:59:25;;;;;;;;;38.25;31.00;;;;;-146.67;100.00;57155.34;5044399;28;62137;-82
2024/01/12 07:01:50;;;;;;;;;45.00;32.50;;;;;-146.67;100.00;57155.34;5062834;28;61824;-82
2024/01/12 07:04:16;;;;;;;;;54.00;32.50;;;;;-146.67;100.00;57155.34;5061473;28;61985;-80
2024/01/12 07:06:41;;;;;;;;;38.25;30.50;;;;;-146.67;100.00;57155.34;5042512;28;63750;-81
2024/01/12 07:09:11;;;;;;;;;37.00;27.00;;;;;-146.67;100.00;57155.34;5061401;28;61820;-82
2024/01/12 07:11:41;;;;;;;;;55.00;40.25;;;;;-146.67;100.00;57155.34;5062119;28;61986;-82
2024/01/12 07:14:06;;;;;;;;;62.00;44.67;;;;;-146.67;100.00;57155.34;5061316;28;61897;-82
2024/01/12 07:16:31;;;;;;;;;59.75;42.75;;;;;-146.67;100.00;57155.34;5060079;28;62035;-82
2024/01/12 07:18:57;;;;;;;;;46.25;36.25;;;;;-146.67;100.00;57155.34;5062107;28;61936;-79
2024/01/12 07:21:22;;;;;;;;;55.00;43.25;;;;;-146.67;100.00;57155.34;5061635;28;61842;-80
2024/01/12 07:23:47;;;;;;;;;58.50;41.75;;;;;-146.67;100.00;57155.34;5063225;28;61712;-80
2024/01/12 07:26:13;;;;;;;;;38.25;31.25;;;;;-146.67;100.00;57155.34;5062379;28;62495;-80
2024/01/12 07:28:38;;;;;;;;;44.25;36.25;;;;;-146.67;100.00;57155.34;5060365;28;61869;-79
2024/01/12 07:31:03;;;;;;;;;46.50;38.00;;;;;-146.67;100.00;57155.34;5063243;28;61911;-80
2024/01/12 07:33:29;;;;;;;;;39.50;32.50;;;;;-146.67;100.00;57155.34;5061982;28;61971;-78
2024/01/12 07:35:55;;;;;;;;;44.75;30.00;;;;;-146.67;100.00;57155.34;5041621;28;63716;-80
2024/01/12 07:38:20;;;;;;;;;31.75;27.00;;;;;-146.67;100.00;57155.34;5052598;28;61979;-82
2024/01/12 07:40:46;;;;;;;;;46.00;28.00;;;;;-146.67;100.00;57155.34;5071286;28;61878;-81
2024/01/12 07:43:12;;;;;;;;;37.25;27.75;;;;;-146.67;100.00;57155.34;5073066;28;61844;-84
2024/01/12 07:45:37;;;;;;;;;33.00;29.00;;;;;-146.67;100.00;57155.34;5071082;28;62569;-85
2024/01/12 07:48:03;;;;;;;;;40.50;29.25;;;;;-146.67;100.00;57155.34;5073529;28;61973;-85
2024/01/12 07:50:28;;;;;;;;;35.75;31.25;;;;;-146.67;100.00;57155.34;5064601;28;61830;-81
2024/01/12 07:52:54;;;;;;;;;33.50;25.25;;;;;-146.67;100.00;57155.34;5043085;28;62067;-83
2024/01/12 07:55:19;;;;;;;;;32.25;28.50;;;;;-146.67;100.00;57155.34;5059836;28;63980;-78
2024/01/12 07:57:44;;;;;;;;;41.00;27.25;;;;;-146.67;100.00;57155.34;5060933;28;61944;-81
2024/01/12 08:00:11;;;;;;;;;32.25;29.00;;;;;-146.67;100.00;57155.34;5061938;28;62049;-82
2024/01/12 08:02:36;;;;;;;;;39.00;26.25;;;;;-146.67;100.00;57155.34;5062171;28;61993;-85
2024/01/12 08:05:02;;;;;;;;;28.75;23.75;;;;;-146.67;100.00;57155.34;5038227;28;63759;-86
2024/01/12 08:07:27;;;;;;;;;30.25;20.50;;;;;-146.67;100.00;57155.34;5023888;28;61838;-85
2024/01/12 08:09:52;;;;;;;;;37.75;28.50;;;;;-146.67;100.00;57155.34;5042183;28;61948;-84
2024/01/12 08:12:19;;;;;;;;;37.25;22.75;;;;;-146.67;100.00;57155.34;5042632;28;61822;-87
2024/01/12 08:14:44;;;;;;;;;37.00;19.00;;;;;-146.67;100.00;57155.34;5040369;28;61825;-87
2024/01/12 08:17:09;;;;;;;;;40.00;29.25;;;;;-146.67;100.00;57155.34;5040676;28;62130;-87
2024/01/12 08:19:35;;;;;;;;;26.00;22.50;;;;;-146.67;100.00;57155.34;5030667;28;62400;-87
2024/01/12 08:22:00;;;;;;;;;35.00;27.25;;;;;-146.67;100.00;57155.34;5044777;28;62012;-87
2024/01/12 08:24:25;;;;;;;;;32.00;22.75;;;;;-146.67;100.00;57155.34;5043360;28;63842;-86
2024/01/12 08:26:51;;;;;;;;;26.25;22.00;;;;;-146.67;100.00;57155.34;5062260;28;61707;-87
2024/01/12 08:29:17;;;;;;;;;31.00;24.00;;;;;-146.67;100.00;57155.34;5062107;28;61714;-87
2024/01/12 08:31:42;;;;;;;;;30.75;26.75;;;;;-146.67;100.00;57155.34;5061138;28;61737;-87
2024/01/12 08:34:08;;;;;;;;;29.25;23.25;;;;;-146.67;100.00;57155.34;5060860;28;63226;-86
2024/01/12 08:36:34;;;;;;;;;30.75;25.00;;;;;-146.67;100.00;57155.34;5060217;28;61850;-87
2024/01/12 08:38:59;;;;;;;;;38.50;23.75;;;;;-146.67;100.00;57155.34;5062402;28;61748;-87
2024/01/12 08:41:24;;;;;;;;;23.25;18.75;;;;;-146.67;100.00;57155.34;5061063;28;61723;-87
2024/01/12 08:43:52;;;;;;;;;28.00;20.25;;;;;-146.67;100.00;57155.34;5061691;28;62680;-87
2024/01/12 08:46:18;;;;;;;;;29.25;20.00;;;;;-146.67;100.00;57155.34;5060699;28;61775;-87
2024/01/12 08:48:44;;;;;;;;;35.50;23.75;;;;;-146.67;100.00;57155.34;5060045;28;62217;-87
2024/01/12 08:51:09;;;;;;;;;26.50;22.00;;;;;-146.67;100.00;57155.34;5044342;28;62204;-86
2024/01/12 08:53:35;;;;;;;;;28.75;21.75;;;;;-146.67;100.00;57155.34;5061205;28;61909;-87
2024/01/12 08:56:00;;;;;;;;;21.75;18.50;;;;;-146.67;100.00;57155.34;5056447;28;61932;-84
2024/01/12 08:58:26;;;;;;;;;31.25;19.75;;;;;-146.67;100.00;57155.34;5061277;28;62759;-88
2024/01/12 09:00:51;;;;;;;;;33.25;29.75;;;;;-146.67;100.00;57155.34;5051596;28;61910;-84
2024/01/12 09:03:17;;;;;;;;;27.25;20.25;;;;;-146.67;100.00;57155.34;5059944;28;61988;-87
2024/01/12 09:05:42;;;;;;;;;30.50;24.00;;;;;-146.67;100.00;57155.34;5060733;28;62003;-89
2024/01/12 09:08:07;;;;;;;;;37.75;24.50;;;;;-146.67;100.00;57155.34;5061405;28;61971;-89
2024/01/12 09:10:33;;;;;;;;;41.75;27.25;;;;;-146.67;100.00;57155.34;5058185;28;61833;-87
2024/01/12 09:12:59;;;;;;;;;36.25;25.00;;;;;-146.67;100.00;57155.34;5049763;28;63456;-88
2024/01/12 09:15:24;;;;;;;;;31.25;26.50;;;;;-146.67;100.00;57155.34;5059499;28;61810;-88
2024/01/12 09:17:49;;;;;;;;;43.00;27.75;;;;;-146.67;100.00;57155.34;5060389;28;62365;-89
2024/01/12 09:20:15;;;;;;;;;29.50;19.50;;;;;-146.67;100.00;57155.34;5060743;28;62061;-88
2024/01/12 09:22:40;;;;;;;;;28.00;22.75;;;;;-146.67;100.00;57155.34;5058531;28;63787;-87
2024/01/12 09:25:06;;;;;;;;;29.50;21.75;;;;;-146.67;100.00;57155.34;5061439;28;61913;-88
2024/01/12 09:27:31;;;;;;;;;28.50;20.50;;;;;-146.67;100.00;57155.34;5059938;28;61874;-88
2024/01/12 09:29:57;;;;;;;;;21.00;16.75;;;;;-146.67;100.00;57155.34;5060979;28;61760;-89
2024/01/12 09:32:22;;;;;;;;;32.50;25.75;;;;;-146.67;100.00;57155.34;5058954;28;64980;-88
2024/01/12 09:34:48;;;;;;;;;24.50;20.50;;;;;-146.67;100.00;57155.34;5041293;28;62073;-89
2024/01/12 09:37:14;;;;;;;;;32.75;17.75;;;;;-146.67;100.00;57155.34;5060675;28;61941;-89
2024/01/12 09:39:39;;;;;;;;;28.50;20.25;;;;;-146.67;100.00;57155.34;5061759;28;61812;-89
2024/01/12 09:42:08;;;;;;;;;33.00;20.75;;;;;-146.67;100.00;57155.34;5062610;28;64483;-87
2024/01/12 09:44:37;;;;;;;;;30.75;24.50;;;;;-146.67;100.00;57155.34;5046355;28;61777;-88
2024/01/12 09:47:02;;;;;;;;;35.00;30.75;;;;;-146.67;100.00;57155.34;5063437;28;61916;-87
2024/01/12 09:49:30;;;;;;;;;35.00;29.75;;;;;-146.67;100.00;57155.34;5064979;28;62230;-88
2024/01/12 09:51:57;;;;;;;;;40.50;31.50;;;;;-146.67;100.00;57155.34;5063714;28;62006;-88
2024/01/12 09:54:23;;;;;;;;;42.00;29.00;;;;;-146.67;100.00;57155.34;5064289;28;61937;-88
2024/01/12 09:56:48;;;;;;;;;42.25;36.75;;;;;-146.67;100.00;57155.34;5063966;28;61856;-89
2024/01/12 09:59:16;;;;;;;;;39.25;28.25;;;;;-146.67;100.00;57155.34;5063912;28;61890;-88
2024/01/12 10:01:42;;;;;;;;;46.50;25.00;;;;;-146.67;100.00;57155.34;5064145;28;62798;-89
2024/01/12 10:04:09;;;;;;;;;37.25;28.00;;;;;-146.67;100.00;57155.34;5051521;28;62036;-88
2024/01/12 10:06:35;;;;;;;;;42.50;35.50;;;;;-146.67;100.00;57155.34;5064316;28;61720;-89
2024/01/12 10:09:01;;;;;;;;;39.50;28.00;;;;;-146.67;100.00;57155.34;5062862;28;61787;-86
2024/01/12 10:11:27;;;;;;;;;49.50;36.75;;;;;-146.67;100.00;57155.34;5060273;28;63492;-89
2024/01/12 10:13:52;;;;;;;;;35.25;32.50;;;;;-146.67;100.00;57155.34;5063472;28;61876;-89
2024/01/12 10:16:18;;;;;;;;;50.00;34.25;;;;;-146.67;100.00;57155.34;5061019;28;62274;-89
2024/01/12 10:18:43;;;;;;;;;38.00;30.50;;;;;-146.67;100.00;57155.34;5054191;28;62012;-89
2024/01/12 10:21:09;;;;;;;;;41.75;33.25;;;;;-146.67;100.00;57155.34;5062010;28;64035;-89
2024/01/12 10:23:35;;;;;;;;;46.00;29.75;;;;;-146.67;100.00;57155.34;5064936;28;61739;-90
2024/01/12 10:26:03;;;;;;;;;47.75;36.50;;;;;-146.67;100.00;57155.34;5064562;28;61870;-90
2024/01/12 10:28:30;;;;;;;;;40.75;31.75;;;;;-146.67;100.00;57155.34;5063991;28;61862;-89
2024/01/12 10:30:55;;;;;;;;;42.75;32.00;;;;;-146.67;100.00;57155.34;5053807;28;64288;-90
2024/01/12 10:33:22;;;;;;;;;41.00;27.25;;;;;-146.67;100.00;57155.34;5062789;28;61893;-90
2024/01/12 10:36:11;;;;;;;;;45.50;32.75;;;;;-146.67;100.00;57155.34;5063589;28;61897;-86
2024/01/12 10:38:39;;;;;;;;;45.25;36.25;;;;;-146.67;100.00;57155.34;5063764;28;61959;-87
2024/01/12 10:41:11;;;;;;;;;39.00;30.50;;;;;-146.67;100.00;57155.34;5061636;28;64789;-88
2024/01/12 10:43:38;;;;;;;;;32.25;32.25;;;;;-146.67;100.00;57155.34;5063621;28;61914;-88
2024/01/12 10:46:12;;;;;;;;;44.75;34.25;;;;;-146.67;100.00;57155.34;5063637;28;61809;-88
2024/01/12 10:49:15;;;;;;;;;42.25;31.00;;;;;-146.67;100.00;57155.34;5062588;28;62142;-88